Time;durP1;ratioP1;P1;durP2;ratioP2;P2;SDS_P1;SDS_P2;PMS_P1;PMS_P2;Temp;Humidity;BMP_temperature;BMP_pressure;BME280_temperature;BME280_humidity;BME280_pressure;Samples;Min_cycle;Max_cycle;Signal;HPM_P1;HPM_P2
2022/09/15 00:00:54;;;;;;;;;;;14.60;99.90;;;;;;5074280;28;19923;-76
2022/09/15 00:03:20;;;;;;;;;;;14.60;99.90;;;;;;5107229;28;19988;-75
2022/09/15 00:05:46;;;;;;;;;;;14.60;99.90;;;;;;5094914;28;20381;-75
2022/09/15 00:08:12;;;;;;;;;;;14.60;99.90;;;;;;5116848;28;19907;-75
2022/09/15 00:10:38;;;;;;;;;;;14.60;99.90;;;;;;5091821;28;19915;-75
2022/09/15 00:13:04;;;;;;;;;;;14.70;99.90;;;;;;5101950;28;20047;-75
2022/09/15 00:15:30;;;;;;;;;;;14.70;99.90;;;;;;5108687;28;20329;-75
2022/09/15 00:17:55;;;;;;;;;;;14.70;99.90;;;;;;5089003;28;19962;-74
2022/09/15 00:20:21;;;;;;;;;;;14.60;99.90;;;;;;5106521;28;19927;-75
2022/09/15 00:22:47;;;;;;;;;;;14.70;99.90;;;;;;5087193;28;19911;-75
2022/09/15 00:25:12;;;;;;;;;;;14.70;99.90;;;;;;5084892;28;19916;-75
2022/09/15 00:27:38;;;;;;;;;;;14.70;99.90;;;;;;5088690;28;19945;-76
2022/09/15 00:30:04;;;;;;;;;;;14.90;99.90;;;;;;5112196;28;19916;-75
2022/09/15 00:32:30;;;;;;;;;;;14.80;99.90;;;;;;5114808;28;20310;-76
2022/09/15 00:34:56;;;;;;;;;;;14.90;99.90;;;;;;5101252;28;19919;-76
2022/09/15 00:37:21;;;;;;;;;;;14.90;99.90;;;;;;5088876;28;19920;-75
2022/09/15 00:39:47;;;;;;;;;;;15.10;99.90;;;;;;5097268;28;19912;-75
2022/09/15 00:42:14;;;;;;;;;;;15.20;99.90;;;;;;5110105;28;19915;-76
2022/09/15 00:44:48;;;;;;;;;;;15.40;99.90;;;;;;5095946;28;19915;-76
2022/09/15 00:47:14;;;;;;;;;;;15.40;99.90;;;;;;5095733;28;19923;-72
2022/09/15 00:49:40;;;;;;;;;;;15.50;99.90;;;;;;5095046;28;19966;-76
2022/09/15 00:52:26;;;;;;;;;;;15.40;99.90;;;;;;5091728;28;19947;-75
2022/09/15 00:54:53;;;;;;;;;;;15.50;99.90;;;;;;5041865;28;20007;-76
2022/09/15 00:57:25;;;;;;;;;;;15.60;99.90;;;;;;5050906;28;20228;-75
2022/09/15 00:59:51;;;;;;;;;;;15.50;99.90;;;;;;5030498;28;20263;-76
2022/09/15 01:02:18;;;;;;;;;;;15.60;99.90;;;;;;5047990;28;19913;-74
2022/09/15 01:04:44;;;;;;;;;;;15.50;99.90;;;;;;5051221;28;19962;-74
2022/09/15 01:07:12;;;;;;;;;;;15.40;99.90;;;;;;5052283;28;20296;-74
2022/09/15 01:09:44;;;;;;;;;;;15.50;99.90;;;;;;5052246;28;19995;-74
2022/09/15 01:12:10;;;;;;;;;;;15.40;99.90;;;;;;5035381;28;19920;-73
2022/09/15 01:14:36;;;;;;;;;;;15.30;99.90;;;;;;5035185;28;19913;-74
2022/09/15 01:17:08;;;;;;;;;;;15.30;99.90;;;;;;5051694;28;19999;-73
2022/09/15 01:19:48;;;;;;;;;;;15.20;99.90;;;;;;5052194;28;20059;-74
2022/09/15 01:22:26;;;;;;;;;;;15.10;99.90;;;;;;5035388;28;19924;-74
2022/09/15 01:25:02;;;;;;;;;;;15.00;99.90;;;;;;5051119;28;19913;-73
2022/09/15 01:27:38;;;;;;;;;;;14.90;99.90;;;;;;5050449;28;20534;-74
2022/09/15 01:30:06;;;;;;;;;;;14.70;99.90;;;;;;5031600;28;19924;-75
2022/09/15 01:35:16;;;;;;;;;;;14.70;99.90;;;;;;5095381;28;20381;-74
2022/09/15 01:37:49;;;;;;;;;;;14.80;99.90;;;;;;5099585;28;20003;-74
2022/09/15 01:40:17;;;;;;;;;;;14.80;99.90;;;;;;5107337;28;19908;-74
2022/09/15 01:42:43;;;;;;;;;;;14.90;99.90;;;;;;5090482;28;20006;-74
2022/09/15 01:45:12;;;;;;;;;;;14.90;99.90;;;;;;5089322;28;19919;-77
2022/09/15 01:47:38;;;;;;;;;;;15.00;99.90;;;;;;5088757;28;19916;-75
2022/09/15 01:50:18;;;;;;;;;;;15.00;99.90;;;;;;5105929;28;19938;-76
2022/09/15 01:52:47;;;;;;;;;;;15.00;99.90;;;;;;5107563;28;19951;-75
2022/09/15 01:55:15;;;;;;;;;;;15.10;99.90;;;;;;5092740;28;19912;-75
2022/09/15 01:57:41;;;;;;;;;;;15.10;99.90;;;;;;5101759;28;19951;-75
2022/09/15 02:00:07;;;;;;;;;;;15.10;99.90;;;;;;5110541;28;19963;-76
2022/09/15 02:02:36;;;;;;;;;;;15.10;99.90;;;;;;5092720;28;19958;-74
2022/09/15 02:05:10;;;;;;;;;;;15.10;99.90;;;;;;5109209;28;19936;-76
2022/09/15 02:07:43;;;;;;;;;;;15.20;99.90;;;;;;5083066;28;20272;-75
2022/09/15 02:10:12;;;;;;;;;;;15.20;99.90;;;;;;5097287;28;19923;-75
2022/09/15 02:12:41;;;;;;;;;;;15.20;99.90;;;;;;5103267;28;19912;-76
2022/09/15 02:15:10;;;;;;;;;;;15.20;99.90;;;;;;5090764;28;19908;-74
2022/09/15 02:17:41;;;;;;;;;;;15.20;99.90;;;;;;5105308;28;20014;-76
2022/09/15 02:20:08;;;;;;;;;;;15.30;99.90;;;;;;5084454;28;19942;-75
2022/09/15 02:22:36;;;;;;;;;;;15.30;99.90;;;;;;5091446;28;19920;-75
2022/09/15 02:25:02;;;;;;;;;;;15.30;99.90;;;;;;5080077;28;19913;-75
2022/09/15 02:27:30;;;;;;;;;;;15.30;99.90;;;;;;5081152;28;19942;-73
2022/09/15 02:29:58;;;;;;;;;;;15.30;99.90;;;;;;5073644;28;19912;-75
2022/09/15 02:32:26;;;;;;;;;;;15.30;99.90;;;;;;5083222;28;19923;-74
2022/09/15 02:34:52;;;;;;;;;;;15.30;99.90;;;;;;5072671;28;20303;-75
2022/09/15 02:37:19;;;;;;;;;;;15.30;99.90;;;;;;5073661;28;19927;-77
2022/09/15 02:39:47;;;;;;;;;;;15.30;99.90;;;;;;5091507;28;19959;-75
2022/09/15 02:42:20;;;;;;;;;;;15.30;99.90;;;;;;5095805;28;20371;-72
2022/09/15 02:44:46;;;;;;;;;;;15.20;99.90;;;;;;5082745;28;20568;-77
2022/09/15 02:47:12;;;;;;;;;;;15.20;99.90;;;;;;5079294;28;19912;-75
2022/09/15 02:49:37;;;;;;;;;;;15.30;99.90;;;;;;5081602;28;19955;-76
2022/09/15 02:52:03;;;;;;;;;;;15.30;99.90;;;;;;5092102;28;19920;-76
2022/09/15 02:54:28;;;;;;;;;;;15.30;99.90;;;;;;5083767;28;19987;-76
2022/09/15 02:56:54;;;;;;;;;;;15.20;99.90;;;;;;5088091;28;19920;-74
2022/09/15 02:59:19;;;;;;;;;;;15.30;99.90;;;;;;5086246;28;19963;-76
2022/09/15 03:01:45;;;;;;;;;;;15.40;99.90;;;;;;5089367;28;19916;-75
2022/09/15 03:04:11;;;;;;;;;;;15.40;99.90;;;;;;5084942;28;19978;-74
2022/09/15 03:06:36;;;;;;;;;;;15.50;99.90;;;;;;5077563;28;19912;-74
2022/09/15 03:09:06;;;;;;;;;;;15.50;99.90;;;;;;5076470;28;20008;-74
2022/09/15 03:11:31;;;;;;;;;;;15.50;99.90;;;;;;5077201;28;20246;-76
2022/09/15 03:13:58;;;;;;;;;;;15.50;99.90;;;;;;5079601;28;19974;-75
2022/09/15 03:16:25;;;;;;;;;;;15.50;99.90;;;;;;5077125;28;19918;-76
2022/09/15 03:18:51;;;;;;;;;;;15.40;99.90;;;;;;5076424;28;20275;-75
2022/09/15 03:21:17;;;;;;;;;;;15.40;99.90;;;;;;5087263;28;19916;-75
2022/09/15 03:23:43;;;;;;;;;;;15.50;99.90;;;;;;5086815;28;19925;-77
2022/09/15 03:26:09;;;;;;;;;;;15.50;99.90;;;;;;5108949;28;20341;-76
2022/09/15 03:28:35;;;;;;;;;;;15.40;99.90;;;;;;5079027;28;20227;-76
2022/09/15 03:31:01;;;;;;;;;;;15.40;99.90;;;;;;5106360;28;19912;-76
2022/09/15 03:33:28;;;;;;;;;;;15.40;99.90;;;;;;5079035;28;19908;-75
2022/09/15 03:35:54;;;;;;;;;;;15.40;99.90;;;;;;5096347;28;20215;-76
2022/09/15 03:38:19;;;;;;;;;;;15.40;99.90;;;;;;5107505;28;19920;-75
2022/09/15 03:40:55;;;;;;;;;;;15.40;99.90;;;;;;5096827;28;19923;-74
2022/09/15 03:43:20;;;;;;;;;;;15.40;99.90;;;;;;5115763;28;20321;-75
2022/09/15 03:45:46;;;;;;;;;;;15.50;99.90;;;;;;5117320;28;19907;-75
2022/09/15 03:48:11;;;;;;;;;;;15.40;99.90;;;;;;5102631;28;19912;-75
2022/09/15 03:50:37;;;;;;;;;;;15.40;99.90;;;;;;5080398;28;19915;-76
2022/09/15 03:53:03;;;;;;;;;;;15.40;99.90;;;;;;5110442;28;19922;-75
2022/09/15 03:55:29;;;;;;;;;;;15.30;99.90;;;;;;5092020;28;19916;-75
2022/09/15 03:57:54;;;;;;;;;;;15.40;99.90;;;;;;5109699;28;19912;-75
2022/09/15 04:00:20;;;;;;;;;;;15.40;99.90;;;;;;5094864;28;19926;-75
2022/09/15 04:02:46;;;;;;;;;;;15.40;99.90;;;;;;5115821;28;19947;-75
2022/09/15 04:05:12;;;;;;;;;;;15.30;99.90;;;;;;5098192;28;20383;-75
2022/09/15 04:07:38;;;;;;;;;;;15.30;99.90;;;;;;5115775;28;19911;-74
2022/09/15 04:10:04;;;;;;;;;;;15.30;99.90;;;;;;5084398;28;19915;-75
2022/09/15 04:12:31;;;;;;;;;;;15.30;99.90;;;;;;5104586;28;19960;-75
2022/09/15 04:14:56;;;;;;;;;;;15.20;99.90;;;;;;5102967;28;19946;-75
2022/09/15 04:17:22;;;;;;;;;;;15.30;99.90;;;;;;5112430;28;19947;-75
2022/09/15 04:19:48;;;;;;;;;;;15.20;99.90;;;;;;5103544;28;20314;-75
2022/09/15 04:22:13;;;;;;;;;;;15.20;99.90;;;;;;5103423;28;20003;-77
2022/09/15 04:24:39;;;;;;;;;;;15.10;99.90;;;;;;5115436;28;19916;-75
2022/09/15 04:27:04;;;;;;;;;;;15.10;99.90;;;;;;5114335;28;19922;-75
2022/09/15 04:29:30;;;;;;;;;;;15.10;99.90;;;;;;5074169;28;20018;-75
2022/09/15 04:31:55;;;;;;;;;;;15.10;99.90;;;;;;5102349;28;20022;-75
2022/09/15 04:34:21;;;;;;;;;;;15.00;99.90;;;;;;5112097;28;20074;-75
2022/09/15 04:36:47;;;;;;;;;;;15.00;99.90;;;;;;5107246;28;19954;-75
2022/09/15 04:39:12;;;;;;;;;;;15.00;99.90;;;;;;5111911;28;20019;-74
2022/09/15 04:41:38;;;;;;;;;;;15.00;99.90;;;;;;5105066;28;20469;-75
2022/09/15 04:44:03;;;;;;;;;;;15.00;99.90;;;;;;5082832;28;19969;-75
2022/09/15 04:46:29;;;;;;;;;;;15.00;99.90;;;;;;5112478;28;19908;-75
2022/09/15 04:48:55;;;;;;;;;;;15.00;99.90;;;;;;5116005;28;19911;-75
2022/09/15 04:51:21;;;;;;;;;;;14.90;99.90;;;;;;5115269;28;19922;-75
2022/09/15 04:53:47;;;;;;;;;;;14.80;99.90;;;;;;5105740;28;19912;-75
2022/09/15 04:56:22;;;;;;;;;;;14.80;99.90;;;;;;5100469;28;20041;-76
2022/09/15 04:58:49;;;;;;;;;;;14.80;99.90;;;;;;5101694;28;19915;-75
2022/09/15 05:01:19;;;;;;;;;;;14.70;99.90;;;;;;5112182;28;19984;-75
2022/09/15 05:03:45;;;;;;;;;;;14.70;99.90;;;;;;5097996;28;20234;-75
2022/09/15 05:06:12;;;;;;;;;;;14.80;99.90;;;;;;5077047;28;19908;-75
2022/09/15 05:08:38;;;;;;;;;;;14.80;99.90;;;;;;5094780;28;20399;-75
2022/09/15 05:11:05;;;;;;;;;;;14.80;99.90;;;;;;5094891;28;20029;-75
2022/09/15 05:13:30;;;;;;;;;;;14.80;99.90;;;;;;5094325;28;19916;-74
2022/09/15 05:16:01;;;;;;;;;;;14.90;99.90;;;;;;5105747;28;20314;-75
2022/09/15 05:18:27;;;;;;;;;;;15.00;99.90;;;;;;5100904;28;20252;-76
2022/09/15 05:20:56;;;;;;;;;;;15.00;99.90;;;;;;5098824;28;19931;-75
2022/09/15 05:23:22;;;;;;;;;;;15.00;99.90;;;;;;5104074;28;20184;-75
2022/09/15 05:25:58;;;;;;;;;;;15.10;99.90;;;;;;5083099;28;19919;-76
2022/09/15 05:28:24;;;;;;;;;;;15.10;99.90;;;;;;5099990;28;19939;-75
2022/09/15 05:30:51;;;;;;;;;;;15.10;99.90;;;;;;5111009;27;19912;-76
2022/09/15 05:33:17;;;;;;;;;;;15.10;99.90;;;;;;5099523;28;19938;-76
2022/09/15 05:35:56;;;;;;;;;;;15.00;99.90;;;;;;5100703;28;20007;-76
2022/09/15 05:38:22;;;;;;;;;;;15.00;99.90;;;;;;5085654;28;19969;-75
2022/09/15 05:40:47;;;;;;;;;;;15.00;99.90;;;;;;5107117;28;19960;-75
2022/09/15 05:43:13;;;;;;;;;;;14.90;99.90;;;;;;5106624;28;20155;-75
2022/09/15 05:45:42;;;;;;;;;;;14.80;99.90;;;;;;5109436;28;19908;-75
2022/09/15 05:48:09;;;;;;;;;;;14.80;99.90;;;;;;5104723;28;20259;-74
2022/09/15 05:50:34;;;;;;;;;;;14.80;99.90;;;;;;5087514;28;19920;-75
2022/09/15 05:53:00;;;;;;;;;;;14.70;99.90;;;;;;5094672;28;19935;-75
2022/09/15 05:55:25;;;;;;;;;;;14.70;99.90;;;;;;5100941;28;20609;-75
2022/09/15 05:57:51;;;;;;;;;;;14.70;99.90;;;;;;5094747;28;20337;-75
2022/09/15 06:00:17;;;;;;;;;;;14.70;99.90;;;;;;5077658;28;19912;-74
2022/09/15 06:02:43;;;;;;;;;;;14.70;99.90;;;;;;5094957;28;19916;-74
2022/09/15 06:05:09;;;;;;;;;;;14.70;99.90;;;;;;5094145;28;19915;-73
2022/09/15 06:07:35;;;;;;;;;;;14.80;99.90;;;;;;5095024;28;20249;-73
2022/09/15 06:10:01;;;;;;;;;;;14.80;99.90;;;;;;5093707;28;20304;-74
2022/09/15 06:12:26;;;;;;;;;;;14.80;99.90;;;;;;5076539;28;20027;-74
2022/09/15 06:14:52;;;;;;;;;;;14.90;99.90;;;;;;5094065;28;19908;-74
2022/09/15 06:17:18;;;;;;;;;;;15.00;99.90;;;;;;5094155;28;19928;-73
2022/09/15 06:19:44;;;;;;;;;;;15.10;99.90;;;;;;5093044;28;19924;-71
2022/09/15 06:22:10;;;;;;;;;;;15.30;99.90;;;;;;5088114;28;19923;-72
2022/09/15 06:24:35;;;;;;;;;;;15.40;99.90;;;;;;5102923;28;19916;-73
2022/09/15 06:27:01;;;;;;;;;;;15.50;99.90;;;;;;5101698;28;19919;-72
2022/09/15 06:29:27;;;;;;;;;;;15.50;99.90;;;;;;5093257;28;19916;-72
2022/09/15 06:31:53;;;;;;;;;;;15.50;99.90;;;;;;5095718;28;20315;-74
2022/09/15 06:34:19;;;;;;;;;;;15.40;99.90;;;;;;5098444;28;19908;-74
2022/09/15 06:36:45;;;;;;;;;;;15.20;99.90;;;;;;5079715;28;19916;-75
2022/09/15 06:39:10;;;;;;;;;;;15.10;99.90;;;;;;5079581;28;19926;-74
2022/09/15 06:41:36;;;;;;;;;;;15.10;99.90;;;;;;5094626;28;19916;-74
2022/09/15 06:44:02;;;;;;;;;;;15.20;99.90;;;;;;5101889;28;20292;-75
2022/09/15 06:46:27;;;;;;;;;;;15.30;99.90;;;;;;5095885;28;21149;-76
2022/09/15 06:48:53;;;;;;;;;;;15.30;99.90;;;;;;5102206;28;19969;-75
2022/09/15 06:51:23;;;;;;;;;;;15.40;99.90;;;;;;5080315;28;20219;-75
2022/09/15 06:53:48;;;;;;;;;;;15.40;99.90;;;;;;5095049;28;20303;-73
2022/09/15 06:56:15;;;;;;;;;;;15.40;99.90;;;;;;5100089;28;19924;-74
2022/09/15 06:58:41;;;;;;;;;;;15.40;99.90;;;;;;5079303;28;19912;-78
2022/09/15 07:01:08;;;;;;;;;;;15.50;99.90;;;;;;5099233;28;20305;-74
2022/09/15 07:03:34;;;;;;;;;;;15.50;99.90;;;;;;5098023;28;19916;-72
2022/09/15 07:06:02;;;;;;;;;;;15.50;99.90;;;;;;5085186;28;20219;-75
2022/09/15 07:08:27;;;;;;;;;;;15.40;99.90;;;;;;5089664;28;19965;-74
2022/09/15 07:10:53;;;;;;;;;;;15.40;99.90;;;;;;5099732;28;19920;-74
2022/09/15 07:13:19;;;;;;;;;;;15.40;99.90;;;;;;5096910;28;20241;-76
2022/09/15 07:15:48;;;;;;;;;;;15.50;99.90;;;;;;5097550;28;19916;-75
2022/09/15 07:18:14;;;;;;;;;;;15.50;99.90;;;;;;5100868;28;19916;-75
2022/09/15 07:20:40;;;;;;;;;;;15.60;99.90;;;;;;5096005;28;19931;-76
2022/09/15 07:23:06;;;;;;;;;;;15.60;99.90;;;;;;5079274;28;19947;-74
2022/09/15 07:25:31;;;;;;;;;;;15.70;99.90;;;;;;5092663;28;19928;-76
2022/09/15 07:27:57;;;;;;;;;;;15.80;99.90;;;;;;5076699;28;19916;-75
2022/09/15 07:30:22;;;;;;;;;;;15.90;99.90;;;;;;5110628;28;19916;-76
2022/09/15 07:32:48;;;;;;;;;;;15.90;99.90;;;;;;5107724;28;19926;-76
2022/09/15 07:35:13;;;;;;;;;;;15.90;99.90;;;;;;5085156;28;19912;-75
2022/09/15 07:37:39;;;;;;;;;;;15.90;99.90;;;;;;5078726;28;20414;-73
2022/09/15 07:40:05;;;;;;;;;;;16.00;99.90;;;;;;5065379;28;20266;-73
2022/09/15 07:42:31;;;;;;;;;;;16.00;99.90;;;;;;5103709;28;20291;-74
2022/09/15 07:44:56;;;;;;;;;;;16.00;99.90;;;;;;5101371;28;20206;-72
2022/09/15 07:47:22;;;;;;;;;;;16.00;99.90;;;;;;5104350;28;19916;-72
2022/09/15 07:49:49;;;;;;;;;;;16.00;99.90;;;;;;5098661;28;19916;-75
2022/09/15 07:52:14;;;;;;;;;;;16.10;99.90;;;;;;5080904;28;20361;-75
2022/09/15 07:54:40;;;;;;;;;;;16.10;99.90;;;;;;5105995;28;19916;-72
2022/09/15 07:57:06;;;;;;;;;;;16.20;99.90;;;;;;5078058;28;19920;-72
2022/09/15 07:59:31;;;;;;;;;;;16.20;99.90;;;;;;5101204;28;19920;-75
2022/09/15 08:01:57;;;;;;;;;;;16.30;99.90;;;;;;5101957;28;19970;-72
2022/09/15 08:04:23;;;;;;;;;;;16.40;99.90;;;;;;5079571;28;20307;-73
2022/09/15 08:06:48;;;;;;;;;;;16.50;99.90;;;;;;5085788;28;19915;-73
2022/09/15 08:09:16;;;;;;;;;;;16.40;99.90;;;;;;5096178;28;19955;-73
2022/09/15 08:11:42;;;;;;;;;;;16.30;99.90;;;;;;5082096;28;19995;-74
2022/09/15 08:14:08;;;;;;;;;;;16.30;99.90;;;;;;5096805;28;20045;-71
2022/09/15 08:16:34;;;;;;;;;;;16.30;99.90;;;;;;5102211;28;19916;-71
2022/09/15 08:18:59;;;;;;;;;;;16.30;99.90;;;;;;5085830;28;19961;-72
2022/09/15 08:21:27;;;;;;;;;;;16.30;99.90;;;;;;5093973;28;20450;-71
2022/09/15 08:23:54;;;;;;;;;;;16.30;99.90;;;;;;5105879;28;19931;-75
2022/09/15 08:26:20;;;;;;;;;;;16.30;99.90;;;;;;5108965;28;20237;-75
2022/09/15 08:28:46;;;;;;;;;;;16.40;99.90;;;;;;5086027;28;19912;-74
2022/09/15 08:31:12;;;;;;;;;;;16.40;99.90;;;;;;5095002;28;19912;-77
2022/09/15 08:33:38;;;;;;;;;;;16.50;99.90;;;;;;5099751;27;19923;-74
2022/09/15 08:36:04;;;;;;;;;;;16.50;99.90;;;;;;5094519;28;20295;-74
2022/09/15 08:38:31;;;;;;;;;;;16.60;99.90;;;;;;5080075;28;20323;-73
2022/09/15 08:40:58;;;;;;;;;;;16.60;99.90;;;;;;5077262;28;19908;-73
2022/09/15 08:43:25;;;;;;;;;;;16.60;99.90;;;;;;5107035;28;19916;-73
2022/09/15 08:45:53;;;;;;;;;;;16.60;99.90;;;;;;5112973;28;19947;-75
2022/09/15 08:48:23;;;;;;;;;;;16.60;99.90;;;;;;5102861;28;19923;-72
2022/09/15 08:50:51;;;;;;;;;;;16.50;99.90;;;;;;5103972;28;19916;-72
2022/09/15 08:53:37;;;;;;;;;;;16.50;99.90;;;;;;5095913;28;19920;-73
2022/09/15 08:56:04;;;;;;;;;;;16.50;99.90;;;;;;5083461;28;20331;-74
2022/09/15 08:58:30;;;;;;;;;;;16.50;99.90;;;;;;5081834;28;19966;-73
2022/09/15 09:01:15;;;;;;;;;;;16.50;99.90;;;;;;5100828;28;19999;-74
2022/09/15 09:03:43;;;;;;;;;;;16.50;99.90;;;;;;5095306;28;19922;-73
2022/09/15 09:06:19;;;;;;;;;;;16.60;99.90;;;;;;5098587;28;19916;-75
2022/09/15 09:08:50;;;;;;;;;;;16.70;99.90;;;;;;5095517;28;19938;-73
2022/09/15 09:11:34;;;;;;;;;;;16.90;99.90;;;;;;5097513;28;20221;-75
2022/09/15 09:14:15;;;;;;;;;;;17.00;99.90;;;;;;5111045;28;19953;-73
2022/09/15 09:17:00;;;;;;;;;;;17.20;99.90;;;;;;5096133;28;20014;-74
2022/09/15 09:19:31;;;;;;;;;;;17.30;99.90;;;;;;5093820;28;20368;-74
2022/09/15 09:22:23;;;;;;;;;;;17.40;99.90;;;;;;5099601;28;19990;-74
2022/09/15 09:24:50;;;;;;;;;;;17.60;99.90;;;;;;5102291;28;19908;-75
2022/09/15 09:27:19;;;;;;;;;;;17.70;99.90;;;;;;5096410;28;19912;-74
2022/09/15 09:29:49;;;;;;;;;;;17.70;99.90;;;;;;5097124;28;20019;-74
2022/09/15 09:32:18;;;;;;;;;;;17.60;99.90;;;;;;5094209;28;19923;-71
2022/09/15 09:35:02;;;;;;;;;;;17.50;99.90;;;;;;5095065;28;20261;-73
2022/09/15 09:37:28;;;;;;;;;;;17.30;99.90;;;;;;5098911;28;20234;-74
2022/09/15 09:39:53;;;;;;;;;;;17.00;99.90;;;;;;5091081;28;20163;-74
2022/09/15 09:42:22;;;;;;;;;;;16.90;99.90;;;;;;5100015;28;20670;-74
2022/09/15 09:44:47;;;;;;;;;;;16.70;99.90;;;;;;5098862;28;19912;-74
2022/09/15 09:47:14;;;;;;;;;;;16.60;99.90;;;;;;5103741;28;19915;-75
2022/09/15 09:49:42;;;;;;;;;;;16.50;99.90;;;;;;5078722;28;19912;-74
2022/09/15 09:52:07;;;;;;;;;;;16.50;99.90;;;;;;5089151;28;20006;-75
2022/09/15 09:54:33;;;;;;;;;;;16.60;99.90;;;;;;5109153;28;19998;-76
2022/09/15 09:57:17;;;;;;;;;;;16.60;99.90;;;;;;5109194;28;20011;-76
2022/09/15 09:59:49;;;;;;;;;;;16.70;99.90;;;;;;5085971;28;20221;-75
2022/09/15 10:02:17;;;;;;;;;;;16.90;99.90;;;;;;5107000;28;19958;-76
2022/09/15 10:04:43;;;;;;;;;;;17.00;99.90;;;;;;5087781;28;19912;-76
2022/09/15 10:07:10;;;;;;;;;;;17.20;99.90;;;;;;5093524;28;19957;-75
2022/09/15 10:09:36;;;;;;;;;;;17.40;99.90;;;;;;5103647;28;19999;-76
2022/09/15 10:12:03;;;;;;;;;;;17.60;99.90;;;;;;5082047;28;19920;-76
2022/09/15 10:14:35;;;;;;;;;;;17.80;99.90;;;;;;5096249;28;19934;-75
2022/09/15 10:17:11;;;;;;;;;;;17.80;99.90;;;;;;5100957;28;19913;-74
2022/09/15 10:19:54;;;;;;;;;;;17.90;99.90;;;;;;5102707;28;19927;-73
2022/09/15 10:22:33;;;;;;;;;;;18.00;99.90;;;;;;5094008;28;19915;-73
2022/09/15 10:24:59;;;;;;;;;;;18.00;99.90;;;;;;5102869;28;19919;-72
2022/09/15 10:27:30;;;;;;;;;;;18.00;99.90;;;;;;5093564;28;19912;-72
2022/09/15 10:29:58;;;;;;;;;;;17.90;99.90;;;;;;5096745;28;19916;-72
2022/09/15 10:32:25;;;;;;;;;;;17.70;99.90;;;;;;5101582;28;19985;-71
2022/09/15 10:34:57;;;;;;;;;;;17.60;99.90;;;;;;5097887;28;20009;-76
2022/09/15 10:37:26;;;;;;;;;;;17.70;99.90;;;;;;5096984;28;19927;-76
2022/09/15 10:39:53;;;;;;;;;;;17.80;99.90;;;;;;5093853;28;19995;-72
2022/09/15 10:42:28;;;;;;;;;;;17.90;99.90;;;;;;5100092;28;19992;-75
2022/09/15 10:45:03;;;;;;;;;;;17.80;99.90;;;;;;5103395;28;19916;-73
2022/09/15 10:47:41;;;;;;;;;;;17.60;99.90;;;;;;5083202;28;19950;-73
2022/09/15 10:50:13;;;;;;;;;;;17.60;99.90;;;;;;5100205;28;19912;-72
2022/09/15 10:52:44;;;;;;;;;;;17.50;99.90;;;;;;5093669;28;19912;-73
2022/09/15 10:55:27;;;;;;;;;;;17.40;99.90;;;;;;5075372;28;19981;-72
2022/09/15 10:57:59;;;;;;;;;;;17.50;99.90;;;;;;5084282;28;19926;-71
2022/09/15 11:00:28;;;;;;;;;;;17.60;99.90;;;;;;5106956;28;19916;-74
2022/09/15 11:03:02;;;;;;;;;;;17.80;99.90;;;;;;5107551;28;19968;-73
2022/09/15 11:05:38;;;;;;;;;;;17.90;99.90;;;;;;5079106;28;19916;-72
2022/09/15 11:08:09;;;;;;;;;;;18.30;99.90;;;;;;5108614;28;19916;-70
2022/09/15 11:10:53;;;;;;;;;;;18.70;99.90;;;;;;5101991;28;20310;-71
2022/09/15 11:13:19;;;;;;;;;;;19.00;99.90;;;;;;5102728;28;19919;-74
2022/09/15 11:15:54;;;;;;;;;;;19.20;99.90;;;;;;5104942;28;20363;-71
2022/09/15 11:18:19;;;;;;;;;;;19.30;97.60;;;;;;5110181;28;20247;-73
2022/09/15 11:20:57;;;;;;;;;;;19.20;97.90;;;;;;5106929;28;20018;-72
2022/09/15 11:23:27;;;;;;;;;;;19.10;96.80;;;;;;5101778;28;20556;-73
2022/09/15 11:25:56;;;;;;;;;;;19.10;96.60;;;;;;5097249;28;20192;-70
2022/09/15 11:28:27;;;;;;;;;;;19.20;97.00;;;;;;5100095;28;19920;-72
2022/09/15 11:31:22;;;;;;;;;;;19.40;97.90;;;;;;5086034;28;19919;-71
2022/09/15 11:33:54;;;;;;;;;;;19.50;98.40;;;;;;5082558;28;19998;-70
2022/09/15 11:36:32;;;;;;;;;;;19.50;98.10;;;;;;5079506;28;19989;-71
2022/09/15 11:39:02;;;;;;;;;;;19.00;99.00;;;;;;5080059;28;19945;-71
2022/09/15 11:41:37;;;;;;;;;;;18.60;99.70;;;;;;5080879;28;19912;-72
2022/09/15 11:44:06;;;;;;;;;;;18.30;99.90;;;;;;5078871;28;19989;-71
2022/09/15 11:46:43;;;;;;;;;;;18.50;99.90;;;;;;5096770;28;19955;-72
2022/09/15 11:49:15;;;;;;;;;;;19.00;99.90;;;;;;5100140;27;19916;-71
2022/09/15 11:51:43;;;;;;;;;;;19.40;99.90;;;;;;5082478;28;20408;-77
2022/09/15 11:54:16;;;;;;;;;;;19.00;99.90;;;;;;5097415;28;20290;-70
2022/09/15 11:56:46;;;;;;;;;;;18.60;99.90;;;;;;5098339;28;19981;-71
2022/09/15 11:59:11;;;;;;;;;;;18.40;99.90;;;;;;5096080;28;20189;-73
2022/09/15 12:01:45;;;;;;;;;;;18.20;99.90;;;;;;5100293;28;19916;-75
2022/09/15 12:04:15;;;;;;;;;;;18.20;99.90;;;;;;5099255;28;19916;-71
2022/09/15 12:06:47;;;;;;;;;;;18.20;99.90;;;;;;5100837;28;20325;-70
2022/09/15 12:09:16;;;;;;;;;;;17.90;99.90;;;;;;5095845;28;19920;-73
2022/09/15 12:11:46;;;;;;;;;;;17.70;99.90;;;;;;5095227;28;19912;-73
2022/09/15 12:14:38;;;;;;;;;;;17.50;99.90;;;;;;5099701;28;19919;-72
2022/09/15 12:17:04;;;;;;;;;;;17.30;99.90;;;;;;5092731;28;19934;-70
2022/09/15 12:19:48;;;;;;;;;;;17.20;99.90;;;;;;5095117;28;19930;-74
2022/09/15 12:22:40;;;;;;;;;;;17.10;99.90;;;;;;5083049;28;19919;-76
2022/09/15 12:25:41;;;;;;;;;;;17.10;99.90;;;;;;5101999;28;19919;-72
2022/09/15 12:28:26;;;;;;;;;;;17.00;99.90;;;;;;5040774;28;19984;-71
2022/09/15 12:31:10;;;;;;;;;;;17.10;99.90;;;;;;5089279;28;20033;-71
2022/09/15 12:33:43;;;;;;;;;;;17.10;99.90;;;;;;5084435;28;20306;-73
2022/09/15 12:36:27;;;;;;;;;;;17.20;99.90;;;;;;5094519;28;19938;-71
2022/09/15 12:38:53;;;;;;;;;;;17.20;99.90;;;;;;5094953;28;19919;-71
2022/09/15 12:41:18;;;;;;;;;;;17.30;99.90;;;;;;5094778;28;19923;-72
2022/09/15 12:43:52;;;;;;;;;;;17.30;99.90;;;;;;5103742;28;19935;-71
2022/09/15 12:46:17;;;;;;;;;;;17.30;99.90;;;;;;5078870;28;20591;-72
2022/09/15 12:48:43;;;;;;;;;;;17.40;99.90;;;;;;5104399;28;19958;-71
2022/09/15 12:51:09;;;;;;;;;;;17.50;99.90;;;;;;5097852;28;19969;-71
2022/09/15 12:53:55;;;;;;;;;;;17.70;99.90;;;;;;5098190;28;19916;-71
2022/09/15 12:56:23;;;;;;;;;;;18.10;99.90;;;;;;5079785;28;19954;-71
2022/09/15 12:58:49;;;;;;;;;;;17.90;99.90;;;;;;5100071;28;19967;-70
2022/09/15 13:01:18;;;;;;;;;;;17.60;99.90;;;;;;5100886;28;19981;-70
2022/09/15 13:03:49;;;;;;;;;;;17.40;99.90;;;;;;5081890;28;19908;-73
2022/09/15 13:06:18;;;;;;;;;;;17.30;99.90;;;;;;5104297;28;20321;-72
2022/09/15 13:08:43;;;;;;;;;;;17.40;99.90;;;;;;5099405;28;19916;-73
2022/09/15 13:11:24;;;;;;;;;;;17.40;99.90;;;;;;5077621;28;20371;-72
2022/09/15 13:13:52;;;;;;;;;;;17.50;99.90;;;;;;5099110;28;19962;-72
2022/09/15 13:16:24;;;;;;;;;;;17.70;99.90;;;;;;5085767;28;19916;-73
2022/09/15 13:18:53;;;;;;;;;;;18.00;99.90;;;;;;5098088;28;20264;-70
2022/09/15 13:21:21;;;;;;;;;;;18.30;99.90;;;;;;5079205;28;20321;-74
2022/09/15 13:23:50;;;;;;;;;;;18.50;99.90;;;;;;5098509;28;19912;-72
2022/09/15 13:26:21;;;;;;;;;;;18.80;99.90;;;;;;5083002;28;19919;-71
2022/09/15 13:28:47;;;;;;;;;;;18.60;99.90;;;;;;5096630;28;20010;-73
2022/09/15 13:31:28;;;;;;;;;;;18.20;99.90;;;;;;5094629;28;20022;-78
2022/09/15 13:34:00;;;;;;;;;;;17.90;99.90;;;;;;5097664;28;19916;-73
2022/09/15 13:36:26;;;;;;;;;;;17.30;99.90;;;;;;5094275;28;20014;-76
2022/09/15 13:39:11;;;;;;;;;;;16.40;99.90;;;;;;5097480;28;20010;-72
2022/09/15 13:41:52;;;;;;;;;;;15.60;99.90;;;;;;5104119;27;19963;-74
2022/09/15 13:44:40;;;;;;;;;;;15.30;99.90;;;;;;5113123;28;20211;-76
2022/09/15 13:47:14;;;;;;;;;;;15.20;99.90;;;;;;5101250;28;20499;-71
2022/09/15 13:49:42;;;;;;;;;;;15.30;99.90;;;;;;5082634;28;20218;-71
2022/09/15 13:52:31;;;;;;;;;;;15.50;99.90;;;;;;5087423;28;19916;-71
2022/09/15 13:55:18;;;;;;;;;;;15.60;99.90;;;;;;5088659;28;19976;-72
2022/09/15 13:57:46;;;;;;;;;;;15.70;99.90;;;;;;5076598;28;20368;-72
2022/09/15 14:00:14;;;;;;;;;;;15.90;99.90;;;;;;5099626;28;19912;-74
2022/09/15 14:02:51;;;;;;;;;;;16.10;99.90;;;;;;5103854;27;20326;-72
2022/09/15 14:05:17;;;;;;;;;;;16.20;99.90;;;;;;5096768;28;20007;-72
2022/09/15 14:07:43;;;;;;;;;;;16.40;99.90;;;;;;5079238;28;19957;-71
2022/09/15 14:10:28;;;;;;;;;;;16.50;99.90;;;;;;5094917;28;19965;-72
2022/09/15 14:12:57;;;;;;;;;;;16.70;99.90;;;;;;5093430;28;19939;-72
2022/09/15 14:15:23;;;;;;;;;;;16.80;99.90;;;;;;5106438;28;19964;-76
2022/09/15 14:17:49;;;;;;;;;;;17.00;99.90;;;;;;5094678;28;19918;-72
2022/09/15 14:20:21;;;;;;;;;;;17.00;99.90;;;;;;5075658;28;19928;-73
2022/09/15 14:22:48;;;;;;;;;;;17.00;99.90;;;;;;5078099;28;20540;-72
2022/09/15 14:25:15;;;;;;;;;;;17.10;99.90;;;;;;5079868;28;19913;-74
2022/09/15 14:27:45;;;;;;;;;;;17.20;99.90;;;;;;5077684;28;20007;-75
2022/09/15 14:30:15;;;;;;;;;;;17.30;99.90;;;;;;5080908;28;19920;-72